• Join FlightAware (Why Join?)
  • Login
  • US Flag 
07:50AM EDT


 

Airport Tracker/Info


-or-


 

Live Flight TrackerFlight Track Log ✈ ASQ5958 ✈ 25-Jun-2013 ✈ KDTW - KORD

Flight Track Log - Related Links

Times and Time Zones

All times are in EDT time to prevent confusion due to time zone crossing. See the ASQ5958 flight status page for this flight to view local times or setup timezone preferences in your user account.

Time Position Orientation Groundspeed Altitude Reporting Facility
EDT Latitude Longitude Course Direction KTS MPH feet Rate Location/Type
10:02AM 42.1972 -83.3608 223° Southwest 165 190 1,300  Level Cleveland Center
10:03AM 42.1694 -83.3961 223° Southwest 210 242 2,800 2,220 Climbing Cleveland Center
10:05AM 42.1489 -83.5436 259° West 253 291 8,000 2,400 Climbing Cleveland Center
10:06AM 42.1825 -83.6181 301° West 253 291 10,500 2,100 Climbing Cleveland Center
10:07AM 42.2236 -83.7181 299° West 277 319 12,200 1,800 Climbing Cleveland Center
10:08AM 42.2647 -83.8156 300° West 293 337 14,200 2,160 Climbing Cleveland Center
10:09AM 42.3058 -83.9103 300° West 298 343 16,600 2,160 Climbing Cleveland Center
10:10AM 42.3467 -84.0053 300° West 298 343 18,600 1,920 Climbing Cleveland Center
10:11AM 42.3856 -84.1000 299° West 298 343 20,500 1,800 Climbing Cleveland Center
10:12AM 42.4242 -84.1981 298° West 298 343 22,200 1,500 Climbing Cleveland Center
10:13AM 42.4311 -84.3053 275° West 290 334 23,500 900 Climbing Cleveland Center
10:14AM 42.4314 -84.4264 270° West 301 346 24,000 240 Climbing Cleveland Center
10:15AM 42.4353 -84.5617 272° West 334 384 24,000  Level Cleveland Center
10:16AM 42.4414 -84.7403 273° West 382 440 24,000  Level Chicago Center
10:18AM 42.4453 -84.8844 272° West 384 442 24,000  Level Chicago Center
10:19AM 42.4489 -85.0664 272° West 400 460 24,000  Level Chicago Center
10:20AM 42.4519 -85.2231 272° West 414 476 24,000  Level Chicago Center
10:21AM 42.4550 -85.3797 272° West 416 479 24,000  Level Chicago Center
10:22AM 42.4578 -85.5392 271° West 422 486 24,000 -180 Level Chicago Center
10:23AM 42.4606 -85.6944 271° West 413 475 23,700 -900 Descending Chicago Center
10:24AM 42.4619 -85.8506 271° West 413 475 22,200 -1,200 Descending Chicago Center
10:26AM 42.4650 -86.1550 271° West 399 459 20,000 -720 Descending Chicago Center
10:27AM 42.4642 -86.3000 270° West 387 445 20,000  Level Chicago Center
10:28AM 42.4622 -86.4750 269° West 387 445 20,000 -1,140 Level Chicago Center
10:29AM 42.4622 -86.6183 270° West 382 440 17,700 -2,520 Descending Chicago Center
10:30AM 42.4608 -86.7556 269° West 367 422 14,800 -2,820 Descending Chicago Center
10:31AM 42.4589 -86.8833 269° West 349 402 11,900 -2,340 Descending Chicago Center
10:32AM 42.4581 -87.0114 270° West 342 394 10,100 -960 Descending Chicago Center
10:33AM 42.4508 -87.1328 265° West 326 375 10,000 -480 Descending Chicago Center
10:34AM 42.4244 -87.2258 249° West 268 308 9,200 -540 Descending Chicago Center
10:35AM 42.3903 -87.3269 245° Southwest 250 288 8,900 -540 Descending Chicago Center
10:36AM 42.3639 -87.4108 247° West 253 291 8,200 -720 Descending Chicago Center
10:37AM 42.3333 -87.4953 244° Southwest 250 288 7,500 -600 Descending Chicago Center
10:38AM 42.3028 -87.5664 240° Southwest 229 264 7,000 -300 Descending Chicago Center
10:39AM 42.2536 -87.6094 213° Southwest 212 244 7,000 -540 Level Chicago Center
10:40AM 42.2028 -87.6719 222° Southwest 206 237 5,900 -1,080 Descending Chicago Center
10:41AM 42.1628 -87.7136 218° Southwest 186 214 4,800 -1,080 Descending Chicago Center
10:42AM 42.1233 -87.7578 220° Southwest 186 214 3,800 -1,020 Descending Chicago Center